sensor_id;sensor_type;location;lat;lon;timestamp;P1;durP1;ratioP1;P2;durP2;ratioP2
16660;SDS011;8444;52.012;5.048;2022-08-19T00:01:28;14.90;;;13.40;;
16660;SDS011;8444;52.012;5.048;2022-08-19T00:03:55;16.27;;;13.52;;
16660;SDS011;8444;52.012;5.048;2022-08-19T00:06:20;15.98;;;12.95;;
16660;SDS011;8444;52.012;5.048;2022-08-19T00:08:46;13.60;;;12.20;;
16660;SDS011;8444;52.012;5.048;2022-08-19T00:11:11;14.02;;;12.63;;
16660;SDS011;8444;52.012;5.048;2022-08-19T00:13:36;18.38;;;14.02;;
16660;SDS011;8444;52.012;5.048;2022-08-19T00:16:03;14.85;;;12.90;;
16660;SDS011;8444;52.012;5.048;2022-08-19T00:18:28;15.70;;;14.10;;
16660;SDS011;8444;52.012;5.048;2022-08-19T00:20:53;17.80;;;15.93;;
16660;SDS011;8444;52.012;5.048;2022-08-19T00:23:18;17.25;;;15.38;;
16660;SDS011;8444;52.012;5.048;2022-08-19T00:25:44;16.52;;;14.77;;
16660;SDS011;8444;52.012;5.048;2022-08-19T00:28:09;19.08;;;17.10;;
16660;SDS011;8444;52.012;5.048;2022-08-19T00:30:34;16.83;;;14.68;;
16660;SDS011;8444;52.012;5.048;2022-08-19T00:32:59;18.17;;;15.70;;
16660;SDS011;8444;52.012;5.048;2022-08-19T00:35:25;22.80;;;16.55;;
16660;SDS011;8444;52.012;5.048;2022-08-19T00:37:52;18.42;;;16.08;;
16660;SDS011;8444;52.012;5.048;2022-08-19T00:40:18;19.13;;;15.38;;
16660;SDS011;8444;52.012;5.048;2022-08-19T00:42:44;17.52;;;15.43;;
16660;SDS011;8444;52.012;5.048;2022-08-19T00:45:13;20.92;;;17.75;;
16660;SDS011;8444;52.012;5.048;2022-08-19T00:47:38;20.35;;;18.15;;
16660;SDS011;8444;52.012;5.048;2022-08-19T00:50:04;27.55;;;22.23;;
16660;SDS011;8444;52.012;5.048;2022-08-19T00:52:32;19.25;;;17.10;;
16660;SDS011;8444;52.012;5.048;2022-08-19T00:54:58;22.02;;;16.83;;
16660;SDS011;8444;52.012;5.048;2022-08-19T00:57:32;17.30;;;14.38;;
16660;SDS011;8444;52.012;5.048;2022-08-19T00:59:59;16.50;;;13.80;;
16660;SDS011;8444;52.012;5.048;2022-08-19T01:02:25;13.60;;;12.20;;
16660;SDS011;8444;52.012;5.048;2022-08-19T01:04:51;14.25;;;12.52;;
16660;SDS011;8444;52.012;5.048;2022-08-19T01:07:17;11.93;;;10.43;;
16660;SDS011;8444;52.012;5.048;2022-08-19T01:09:42;14.68;;;12.20;;
16660;SDS011;8444;52.012;5.048;2022-08-19T01:12:08;9.85;;;8.82;;
16660;SDS011;8444;52.012;5.048;2022-08-19T01:14:33;10.98;;;9.38;;
16660;SDS011;8444;52.012;5.048;2022-08-19T01:16:59;9.63;;;8.73;;
16660;SDS011;8444;52.012;5.048;2022-08-19T01:19:29;10.35;;;9.35;;
16660;SDS011;8444;52.012;5.048;2022-08-19T01:22:01;12.10;;;8.93;;
16660;SDS011;8444;52.012;5.048;2022-08-19T01:24:27;10.43;;;8.98;;
16660;SDS011;8444;52.012;5.048;2022-08-19T01:26:52;10.43;;;9.40;;
16660;SDS011;8444;52.012;5.048;2022-08-19T01:29:18;13.35;;;10.25;;
16660;SDS011;8444;52.012;5.048;2022-08-19T01:31:43;15.95;;;14.25;;
16660;SDS011;8444;52.012;5.048;2022-08-19T01:34:08;20.10;;;16.80;;
16660;SDS011;8444;52.012;5.048;2022-08-19T01:36:35;21.63;;;17.42;;
16660;SDS011;8444;52.012;5.048;2022-08-19T01:39:02;18.73;;;16.10;;
16660;SDS011;8444;52.012;5.048;2022-08-19T01:41:27;20.80;;;17.67;;
16660;SDS011;8444;52.012;5.048;2022-08-19T01:43:53;23.50;;;17.58;;
16660;SDS011;8444;52.012;5.048;2022-08-19T01:46:18;23.88;;;18.25;;
16660;SDS011;8444;52.012;5.048;2022-08-19T01:48:44;19.17;;;15.60;;
16660;SDS011;8444;52.012;5.048;2022-08-19T01:51:09;17.67;;;15.65;;
16660;SDS011;8444;52.012;5.048;2022-08-19T01:53:35;21.08;;;15.90;;
16660;SDS011;8444;52.012;5.048;2022-08-19T01:56:00;16.42;;;14.18;;
16660;SDS011;8444;52.012;5.048;2022-08-19T01:58:29;17.05;;;14.68;;
16660;SDS011;8444;52.012;5.048;2022-08-19T02:00:56;16.70;;;13.88;;
16660;SDS011;8444;52.012;5.048;2022-08-19T02:03:22;16.67;;;14.48;;
16660;SDS011;8444;52.012;5.048;2022-08-19T02:05:53;14.82;;;13.18;;
16660;SDS011;8444;52.012;5.048;2022-08-19T02:08:18;17.35;;;15.00;;
16660;SDS011;8444;52.012;5.048;2022-08-19T02:10:43;15.63;;;13.90;;
16660;SDS011;8444;52.012;5.048;2022-08-19T02:13:09;17.60;;;14.95;;
16660;SDS011;8444;52.012;5.048;2022-08-19T02:15:34;15.27;;;12.40;;
16660;SDS011;8444;52.012;5.048;2022-08-19T02:17:59;23.23;;;17.48;;
16660;SDS011;8444;52.012;5.048;2022-08-19T02:20:25;18.40;;;15.60;;
16660;SDS011;8444;52.012;5.048;2022-08-19T02:22:50;22.40;;;17.80;;
16660;SDS011;8444;52.012;5.048;2022-08-19T02:25:15;23.95;;;18.88;;
16660;SDS011;8444;52.012;5.048;2022-08-19T02:27:40;25.25;;;19.48;;
16660;SDS011;8444;52.012;5.048;2022-08-19T02:30:07;23.77;;;19.25;;
16660;SDS011;8444;52.012;5.048;2022-08-19T02:32:32;26.40;;;20.55;;
16660;SDS011;8444;52.012;5.048;2022-08-19T02:34:58;22.73;;;18.33;;
16660;SDS011;8444;52.012;5.048;2022-08-19T02:37:23;24.10;;;19.58;;
16660;SDS011;8444;52.012;5.048;2022-08-19T02:40:14;25.85;;;18.63;;
16660;SDS011;8444;52.012;5.048;2022-08-19T02:42:40;22.10;;;18.45;;
16660;SDS011;8444;52.012;5.048;2022-08-19T02:45:06;29.83;;;20.17;;
16660;SDS011;8444;52.012;5.048;2022-08-19T02:47:31;22.58;;;17.23;;
16660;SDS011;8444;52.012;5.048;2022-08-19T02:49:57;24.35;;;17.88;;
16660;SDS011;8444;52.012;5.048;2022-08-19T02:52:22;21.58;;;18.52;;
16660;SDS011;8444;52.012;5.048;2022-08-19T02:54:48;22.15;;;16.25;;
16660;SDS011;8444;52.012;5.048;2022-08-19T02:57:13;22.90;;;16.50;;
16660;SDS011;8444;52.012;5.048;2022-08-19T02:59:38;16.40;;;14.70;;
16660;SDS011;8444;52.012;5.048;2022-08-19T03:02:04;16.05;;;14.00;;
16660;SDS011;8444;52.012;5.048;2022-08-19T03:04:29;17.63;;;14.40;;
16660;SDS011;8444;52.012;5.048;2022-08-19T03:06:56;15.82;;;13.45;;
16660;SDS011;8444;52.012;5.048;2022-08-19T03:09:21;19.35;;;14.63;;
16660;SDS011;8444;52.012;5.048;2022-08-19T03:11:46;17.33;;;14.73;;
16660;SDS011;8444;52.012;5.048;2022-08-19T03:14:12;17.02;;;14.00;;
16660;SDS011;8444;52.012;5.048;2022-08-19T03:16:46;18.33;;;15.35;;
16660;SDS011;8444;52.012;5.048;2022-08-19T03:19:12;25.00;;;17.48;;
16660;SDS011;8444;52.012;5.048;2022-08-19T03:21:37;24.48;;;17.35;;
16660;SDS011;8444;52.012;5.048;2022-08-19T03:24:04;20.40;;;16.38;;
16660;SDS011;8444;52.012;5.048;2022-08-19T03:26:30;19.73;;;16.85;;
16660;SDS011;8444;52.012;5.048;2022-08-19T03:28:55;20.35;;;16.77;;
16660;SDS011;8444;52.012;5.048;2022-08-19T03:31:21;23.10;;;17.92;;
16660;SDS011;8444;52.012;5.048;2022-08-19T03:33:50;27.23;;;20.73;;
16660;SDS011;8444;52.012;5.048;2022-08-19T03:36:17;29.75;;;21.48;;
16660;SDS011;8444;52.012;5.048;2022-08-19T03:38:44;28.77;;;21.27;;
16660;SDS011;8444;52.012;5.048;2022-08-19T03:41:13;27.80;;;19.95;;
16660;SDS011;8444;52.012;5.048;2022-08-19T03:43:40;28.35;;;22.55;;
16660;SDS011;8444;52.012;5.048;2022-08-19T03:46:07;30.42;;;21.67;;
16660;SDS011;8444;52.012;5.048;2022-08-19T03:48:33;36.65;;;26.40;;
16660;SDS011;8444;52.012;5.048;2022-08-19T03:50:58;38.30;;;24.60;;
16660;SDS011;8444;52.012;5.048;2022-08-19T03:53:24;39.45;;;27.60;;
16660;SDS011;8444;52.012;5.048;2022-08-19T03:55:51;38.30;;;26.60;;
16660;SDS011;8444;52.012;5.048;2022-08-19T03:58:16;44.03;;;28.25;;
16660;SDS011;8444;52.012;5.048;2022-08-19T04:00:42;38.42;;;27.23;;
16660;SDS011;8444;52.012;5.048;2022-08-19T04:03:07;37.70;;;25.13;;
16660;SDS011;8444;52.012;5.048;2022-08-19T04:05:32;45.30;;;29.30;;
16660;SDS011;8444;52.012;5.048;2022-08-19T04:07:58;43.75;;;29.13;;
16660;SDS011;8444;52.012;5.048;2022-08-19T04:10:24;52.78;;;32.13;;
16660;SDS011;8444;52.012;5.048;2022-08-19T04:12:49;41.10;;;28.40;;
16660;SDS011;8444;52.012;5.048;2022-08-19T04:15:14;39.83;;;26.33;;
16660;SDS011;8444;52.012;5.048;2022-08-19T04:17:40;37.72;;;26.50;;
16660;SDS011;8444;52.012;5.048;2022-08-19T04:20:05;37.92;;;25.63;;
16660;SDS011;8444;52.012;5.048;2022-08-19T04:22:30;39.83;;;26.90;;
16660;SDS011;8444;52.012;5.048;2022-08-19T04:24:56;41.80;;;26.65;;
16660;SDS011;8444;52.012;5.048;2022-08-19T04:27:21;36.95;;;25.20;;
16660;SDS011;8444;52.012;5.048;2022-08-19T04:29:46;40.72;;;25.08;;
16660;SDS011;8444;52.012;5.048;2022-08-19T04:32:12;41.55;;;26.65;;
16660;SDS011;8444;52.012;5.048;2022-08-19T04:34:40;35.30;;;25.63;;
16660;SDS011;8444;52.012;5.048;2022-08-19T04:37:05;44.42;;;27.23;;
16660;SDS011;8444;52.012;5.048;2022-08-19T04:39:36;49.28;;;31.05;;
16660;SDS011;8444;52.012;5.048;2022-08-19T04:42:20;49.35;;;30.73;;
16660;SDS011;8444;52.012;5.048;2022-08-19T04:45:05;48.95;;;30.92;;
16660;SDS011;8444;52.012;5.048;2022-08-19T04:47:30;49.45;;;31.25;;
16660;SDS011;8444;52.012;5.048;2022-08-19T04:49:57;43.17;;;28.25;;
16660;SDS011;8444;52.012;5.048;2022-08-19T04:52:22;49.60;;;31.83;;
16660;SDS011;8444;52.012;5.048;2022-08-19T04:54:48;50.10;;;33.13;;
16660;SDS011;8444;52.012;5.048;2022-08-19T04:57:13;56.42;;;34.30;;
16660;SDS011;8444;52.012;5.048;2022-08-19T04:59:38;58.80;;;35.97;;
16660;SDS011;8444;52.012;5.048;2022-08-19T05:02:04;53.13;;;34.10;;
16660;SDS011;8444;52.012;5.048;2022-08-19T05:04:29;61.08;;;38.55;;
16660;SDS011;8444;52.012;5.048;2022-08-19T05:06:58;60.58;;;36.03;;
16660;SDS011;8444;52.012;5.048;2022-08-19T05:09:23;66.15;;;40.58;;
16660;SDS011;8444;52.012;5.048;2022-08-19T05:11:49;70.63;;;40.28;;
16660;SDS011;8444;52.012;5.048;2022-08-19T05:14:14;77.18;;;41.60;;
16660;SDS011;8444;52.012;5.048;2022-08-19T05:16:40;73.97;;;41.53;;
16660;SDS011;8444;52.012;5.048;2022-08-19T05:19:05;75.10;;;42.58;;
16660;SDS011;8444;52.012;5.048;2022-08-19T05:21:49;75.25;;;42.08;;
16660;SDS011;8444;52.012;5.048;2022-08-19T05:24:32;69.95;;;41.42;;
16660;SDS011;8444;52.012;5.048;2022-08-19T05:26:59;81.55;;;45.00;;
16660;SDS011;8444;52.012;5.048;2022-08-19T05:29:25;74.85;;;41.15;;
16660;SDS011;8444;52.012;5.048;2022-08-19T05:31:51;78.00;;;45.15;;
16660;SDS011;8444;52.012;5.048;2022-08-19T05:34:17;78.70;;;43.28;;
16660;SDS011;8444;52.012;5.048;2022-08-19T05:36:43;78.00;;;43.80;;
16660;SDS011;8444;52.012;5.048;2022-08-19T05:39:10;74.70;;;42.63;;
16660;SDS011;8444;52.012;5.048;2022-08-19T05:41:36;74.00;;;41.30;;
16660;SDS011;8444;52.012;5.048;2022-08-19T05:44:05;66.15;;;40.97;;
16660;SDS011;8444;52.012;5.048;2022-08-19T05:46:33;69.32;;;39.80;;
16660;SDS011;8444;52.012;5.048;2022-08-19T05:48:59;65.75;;;39.63;;
16660;SDS011;8444;52.012;5.048;2022-08-19T05:51:25;58.63;;;36.42;;
16660;SDS011;8444;52.012;5.048;2022-08-19T05:53:50;57.90;;;35.80;;
16660;SDS011;8444;52.012;5.048;2022-08-19T05:56:16;57.63;;;37.22;;
16660;SDS011;8444;52.012;5.048;2022-08-19T05:58:42;57.90;;;35.65;;
16660;SDS011;8444;52.012;5.048;2022-08-19T06:01:10;51.85;;;31.90;;
16660;SDS011;8444;52.012;5.048;2022-08-19T06:03:36;50.75;;;31.50;;
16660;SDS011;8444;52.012;5.048;2022-08-19T06:06:03;49.15;;;29.88;;
16660;SDS011;8444;52.012;5.048;2022-08-19T06:08:28;54.55;;;33.17;;
16660;SDS011;8444;52.012;5.048;2022-08-19T06:10:54;47.72;;;30.30;;
16660;SDS011;8444;52.012;5.048;2022-08-19T06:13:19;53.55;;;31.92;;
16660;SDS011;8444;52.012;5.048;2022-08-19T06:15:45;53.67;;;32.90;;
16660;SDS011;8444;52.012;5.048;2022-08-19T06:18:12;52.03;;;31.80;;
16660;SDS011;8444;52.012;5.048;2022-08-19T06:20:37;50.90;;;32.75;;
16660;SDS011;8444;52.012;5.048;2022-08-19T06:23:02;56.97;;;33.35;;
16660;SDS011;8444;52.012;5.048;2022-08-19T06:25:27;54.53;;;32.30;;
16660;SDS011;8444;52.012;5.048;2022-08-19T06:27:52;51.60;;;33.00;;
16660;SDS011;8444;52.012;5.048;2022-08-19T06:30:18;53.67;;;32.40;;
16660;SDS011;8444;52.012;5.048;2022-08-19T06:32:43;46.03;;;29.80;;
16660;SDS011;8444;52.012;5.048;2022-08-19T06:35:09;42.42;;;27.38;;
16660;SDS011;8444;52.012;5.048;2022-08-19T06:37:34;41.92;;;28.30;;
16660;SDS011;8444;52.012;5.048;2022-08-19T06:40:00;39.33;;;26.00;;
16660;SDS011;8444;52.012;5.048;2022-08-19T06:42:26;37.88;;;26.15;;
16660;SDS011;8444;52.012;5.048;2022-08-19T06:44:51;41.33;;;27.67;;
16660;SDS011;8444;52.012;5.048;2022-08-19T06:47:17;44.63;;;28.50;;
16660;SDS011;8444;52.012;5.048;2022-08-19T06:49:43;42.30;;;26.40;;
16660;SDS011;8444;52.012;5.048;2022-08-19T06:52:08;42.10;;;27.45;;
16660;SDS011;8444;52.012;5.048;2022-08-19T06:54:36;37.33;;;25.70;;
16660;SDS011;8444;52.012;5.048;2022-08-19T06:57:02;36.80;;;26.57;;
16660;SDS011;8444;52.012;5.048;2022-08-19T06:59:27;36.38;;;24.83;;
16660;SDS011;8444;52.012;5.048;2022-08-19T07:01:54;42.97;;;25.90;;
16660;SDS011;8444;52.012;5.048;2022-08-19T07:04:23;38.25;;;26.58;;
16660;SDS011;8444;52.012;5.048;2022-08-19T07:06:50;42.67;;;27.33;;
16660;SDS011;8444;52.012;5.048;2022-08-19T07:09:16;36.15;;;25.67;;
16660;SDS011;8444;52.012;5.048;2022-08-19T07:11:49;39.15;;;26.80;;
16660;SDS011;8444;52.012;5.048;2022-08-19T07:14:15;34.45;;;26.05;;
16660;SDS011;8444;52.012;5.048;2022-08-19T07:16:42;36.17;;;27.25;;
16660;SDS011;8444;52.012;5.048;2022-08-19T07:19:07;44.37;;;27.67;;
16660;SDS011;8444;52.012;5.048;2022-08-19T07:21:33;40.03;;;26.63;;
16660;SDS011;8444;52.012;5.048;2022-08-19T07:23:58;36.75;;;26.30;;
16660;SDS011;8444;52.012;5.048;2022-08-19T07:26:25;33.03;;;26.33;;
16660;SDS011;8444;52.012;5.048;2022-08-19T07:28:51;38.15;;;27.23;;
16660;SDS011;8444;52.012;5.048;2022-08-19T07:31:18;33.88;;;26.38;;
16660;SDS011;8444;52.012;5.048;2022-08-19T07:33:47;30.88;;;24.88;;
16660;SDS011;8444;52.012;5.048;2022-08-19T07:36:13;33.85;;;26.85;;
16660;SDS011;8444;52.012;5.048;2022-08-19T07:38:42;34.95;;;25.83;;
16660;SDS011;8444;52.012;5.048;2022-08-19T07:41:12;38.28;;;25.55;;
16660;SDS011;8444;52.012;5.048;2022-08-19T07:43:38;32.80;;;23.42;;
16660;SDS011;8444;52.012;5.048;2022-08-19T07:46:03;36.13;;;23.92;;
16660;SDS011;8444;52.012;5.048;2022-08-19T07:48:29;27.70;;;23.27;;
16660;SDS011;8444;52.012;5.048;2022-08-19T07:50:55;34.20;;;23.98;;
16660;SDS011;8444;52.012;5.048;2022-08-19T07:53:21;30.73;;;21.50;;
16660;SDS011;8444;52.012;5.048;2022-08-19T07:55:47;27.98;;;22.52;;
16660;SDS011;8444;52.012;5.048;2022-08-19T07:58:14;32.75;;;23.52;;
16660;SDS011;8444;52.012;5.048;2022-08-19T08:00:40;30.55;;;22.90;;
16660;SDS011;8444;52.012;5.048;2022-08-19T08:03:05;28.95;;;21.98;;
16660;SDS011;8444;52.012;5.048;2022-08-19T08:05:30;28.85;;;22.83;;
16660;SDS011;8444;52.012;5.048;2022-08-19T08:08:14;31.45;;;23.52;;
16660;SDS011;8444;52.012;5.048;2022-08-19T08:10:59;31.23;;;22.45;;
16660;SDS011;8444;52.012;5.048;2022-08-19T08:13:25;33.08;;;24.25;;
16660;SDS011;8444;52.012;5.048;2022-08-19T08:15:51;30.85;;;22.90;;
16660;SDS011;8444;52.012;5.048;2022-08-19T08:18:16;31.63;;;22.95;;
16660;SDS011;8444;52.012;5.048;2022-08-19T08:20:42;29.27;;;21.95;;
16660;SDS011;8444;52.012;5.048;2022-08-19T08:23:07;31.60;;;23.10;;
16660;SDS011;8444;52.012;5.048;2022-08-19T08:25:48;32.90;;;21.98;;
16660;SDS011;8444;52.012;5.048;2022-08-19T08:28:14;24.25;;;21.40;;
16660;SDS011;8444;52.012;5.048;2022-08-19T08:30:40;24.83;;;21.23;;
16660;SDS011;8444;52.012;5.048;2022-08-19T08:33:07;23.08;;;20.63;;
16660;SDS011;8444;52.012;5.048;2022-08-19T08:35:32;24.63;;;19.73;;
16660;SDS011;8444;52.012;5.048;2022-08-19T08:37:58;26.27;;;18.75;;
16660;SDS011;8444;52.012;5.048;2022-08-19T08:40:29;23.88;;;19.67;;
16660;SDS011;8444;52.012;5.048;2022-08-19T08:42:59;24.35;;;18.20;;
16660;SDS011;8444;52.012;5.048;2022-08-19T08:45:27;26.90;;;20.13;;
16660;SDS011;8444;52.012;5.048;2022-08-19T08:47:53;24.92;;;19.63;;
16660;SDS011;8444;52.012;5.048;2022-08-19T08:50:29;32.95;;;22.00;;
16660;SDS011;8444;52.012;5.048;2022-08-19T08:53:00;25.95;;;20.77;;
16660;SDS011;8444;52.012;5.048;2022-08-19T08:55:26;27.88;;;22.58;;
16660;SDS011;8444;52.012;5.048;2022-08-19T08:57:53;30.73;;;22.13;;
16660;SDS011;8444;52.012;5.048;2022-08-19T09:00:21;28.02;;;22.92;;
16660;SDS011;8444;52.012;5.048;2022-08-19T09:02:47;25.38;;;21.67;;
16660;SDS011;8444;52.012;5.048;2022-08-19T09:05:12;26.97;;;23.43;;
16660;SDS011;8444;52.012;5.048;2022-08-19T09:12:38;25.50;;;21.60;;
16660;SDS011;8444;52.012;5.048;2022-08-19T09:15:09;24.00;;;20.80;;
16660;SDS011;8444;52.012;5.048;2022-08-19T09:17:35;29.00;;;22.30;;
16660;SDS011;8444;52.012;5.048;2022-08-19T09:22:29;25.55;;;19.98;;
16660;SDS011;8444;52.012;5.048;2022-08-19T09:24:55;22.25;;;19.83;;
16660;SDS011;8444;52.012;5.048;2022-08-19T09:27:21;24.20;;;20.77;;
16660;SDS011;8444;52.012;5.048;2022-08-19T09:29:48;23.33;;;20.15;;
16660;SDS011;8444;52.012;5.048;2022-08-19T09:32:14;24.43;;;21.10;;
16660;SDS011;8444;52.012;5.048;2022-08-19T09:34:39;21.88;;;19.77;;
16660;SDS011;8444;52.012;5.048;2022-08-19T09:37:04;22.55;;;19.15;;
16660;SDS011;8444;52.012;5.048;2022-08-19T09:39:30;25.10;;;19.38;;
16660;SDS011;8444;52.012;5.048;2022-08-19T09:41:55;25.77;;;18.83;;
16660;SDS011;8444;52.012;5.048;2022-08-19T09:44:20;26.23;;;19.25;;
16660;SDS011;8444;52.012;5.048;2022-08-19T09:46:46;28.87;;;20.43;;
16660;SDS011;8444;52.012;5.048;2022-08-19T09:49:17;20.73;;;18.13;;
16660;SDS011;8444;52.012;5.048;2022-08-19T09:51:43;24.75;;;19.33;;
16660;SDS011;8444;52.012;5.048;2022-08-19T09:54:08;26.30;;;20.40;;
16660;SDS011;8444;52.012;5.048;2022-08-19T09:56:33;27.00;;;19.73;;
16660;SDS011;8444;52.012;5.048;2022-08-19T09:58:59;31.33;;;23.88;;
16660;SDS011;8444;52.012;5.048;2022-08-19T10:01:25;31.05;;;22.83;;
16660;SDS011;8444;52.012;5.048;2022-08-19T10:03:51;27.27;;;21.58;;
16660;SDS011;8444;52.012;5.048;2022-08-19T10:06:18;29.45;;;22.52;;
16660;SDS011;8444;52.012;5.048;2022-08-19T10:08:44;32.97;;;22.17;;
16660;SDS011;8444;52.012;5.048;2022-08-19T10:11:09;28.30;;;22.60;;
16660;SDS011;8444;52.012;5.048;2022-08-19T10:13:34;30.52;;;21.63;;
16660;SDS011;8444;52.012;5.048;2022-08-19T10:16:05;31.23;;;20.70;;
16660;SDS011;8444;52.012;5.048;2022-08-19T10:18:31;30.75;;;22.98;;
16660;SDS011;8444;52.012;5.048;2022-08-19T10:21:03;28.60;;;22.58;;
16660;SDS011;8444;52.012;5.048;2022-08-19T10:23:32;28.17;;;20.90;;
16660;SDS011;8444;52.012;5.048;2022-08-19T10:25:59;30.57;;;21.10;;
16660;SDS011;8444;52.012;5.048;2022-08-19T10:28:24;25.35;;;20.00;;
16660;SDS011;8444;52.012;5.048;2022-08-19T10:30:49;28.47;;;20.67;;
16660;SDS011;8444;52.012;5.048;2022-08-19T10:33:14;25.17;;;21.50;;
16660;SDS011;8444;52.012;5.048;2022-08-19T10:35:39;27.80;;;19.83;;
16660;SDS011;8444;52.012;5.048;2022-08-19T10:38:05;27.57;;;21.00;;
16660;SDS011;8444;52.012;5.048;2022-08-19T10:40:30;24.03;;;19.67;;
16660;SDS011;8444;52.012;5.048;2022-08-19T10:42:55;25.27;;;19.30;;
16660;SDS011;8444;52.012;5.048;2022-08-19T10:45:21;25.73;;;20.60;;
16660;SDS011;8444;52.012;5.048;2022-08-19T10:47:50;25.00;;;19.88;;
16660;SDS011;8444;52.012;5.048;2022-08-19T10:50:15;27.50;;;20.30;;
16660;SDS011;8444;52.012;5.048;2022-08-19T10:53:02;19.95;;;17.70;;
16660;SDS011;8444;52.012;5.048;2022-08-19T10:55:27;22.50;;;19.85;;
16660;SDS011;8444;52.012;5.048;2022-08-19T10:58:13;21.33;;;19.02;;
16660;SDS011;8444;52.012;5.048;2022-08-19T11:00:38;18.58;;;16.67;;
16660;SDS011;8444;52.012;5.048;2022-08-19T11:03:05;17.92;;;15.55;;
16660;SDS011;8444;52.012;5.048;2022-08-19T11:05:30;20.98;;;18.77;;
16660;SDS011;8444;52.012;5.048;2022-08-19T11:07:55;20.73;;;18.37;;
16660;SDS011;8444;52.012;5.048;2022-08-19T11:10:21;25.37;;;19.27;;
16660;SDS011;8444;52.012;5.048;2022-08-19T11:12:46;19.90;;;17.27;;
16660;SDS011;8444;52.012;5.048;2022-08-19T11:15:12;20.88;;;17.42;;
16660;SDS011;8444;52.012;5.048;2022-08-19T11:17:40;18.87;;;16.10;;
16660;SDS011;8444;52.012;5.048;2022-08-19T11:20:07;18.85;;;16.80;;
16660;SDS011;8444;52.012;5.048;2022-08-19T11:22:33;15.40;;;13.77;;
16660;SDS011;8444;52.012;5.048;2022-08-19T11:24:59;15.25;;;13.25;;
16660;SDS011;8444;52.012;5.048;2022-08-19T11:27:24;17.83;;;15.77;;
16660;SDS011;8444;52.012;5.048;2022-08-19T11:29:49;13.63;;;12.07;;
16660;SDS011;8444;52.012;5.048;2022-08-19T11:32:14;9.00;;;8.20;;
16660;SDS011;8444;52.012;5.048;2022-08-19T11:34:40;9.65;;;8.65;;
16660;SDS011;8444;52.012;5.048;2022-08-19T11:37:05;9.35;;;7.57;;
16660;SDS011;8444;52.012;5.048;2022-08-19T11:39:31;9.20;;;7.07;;
16660;SDS011;8444;52.012;5.048;2022-08-19T11:41:59;10.27;;;7.68;;
16660;SDS011;8444;52.012;5.048;2022-08-19T11:44:25;7.93;;;7.07;;
16660;SDS011;8444;52.012;5.048;2022-08-19T11:46:51;9.18;;;7.03;;
16660;SDS011;8444;52.012;5.048;2022-08-19T11:49:17;12.98;;;7.90;;
16660;SDS011;8444;52.012;5.048;2022-08-19T11:51:44;12.75;;;7.85;;
16660;SDS011;8444;52.012;5.048;2022-08-19T11:54:09;11.00;;;7.63;;
16660;SDS011;8444;52.012;5.048;2022-08-19T11:56:36;8.27;;;7.45;;
16660;SDS011;8444;52.012;5.048;2022-08-19T11:59:01;9.32;;;7.00;;
16660;SDS011;8444;52.012;5.048;2022-08-19T12:01:27;7.68;;;5.88;;
16660;SDS011;8444;52.012;5.048;2022-08-19T12:03:53;8.33;;;5.97;;
16660;SDS011;8444;52.012;5.048;2022-08-19T12:06:20;7.93;;;5.80;;
16660;SDS011;8444;52.012;5.048;2022-08-19T12:08:48;8.57;;;5.97;;
16660;SDS011;8444;52.012;5.048;2022-08-19T12:11:13;6.03;;;5.32;;
16660;SDS011;8444;52.012;5.048;2022-08-19T12:13:38;5.65;;;4.45;;
16660;SDS011;8444;52.012;5.048;2022-08-19T12:16:10;5.70;;;4.35;;
16660;SDS011;8444;52.012;5.048;2022-08-19T12:18:37;9.50;;;4.95;;
16660;SDS011;8444;52.012;5.048;2022-08-19T12:21:03;5.68;;;4.32;;
16660;SDS011;8444;52.012;5.048;2022-08-19T12:23:28;8.43;;;5.63;;
16660;SDS011;8444;52.012;5.048;2022-08-19T12:25:53;11.32;;;5.97;;
16660;SDS011;8444;52.012;5.048;2022-08-19T12:28:19;6.88;;;6.18;;
16660;SDS011;8444;52.012;5.048;2022-08-19T12:30:45;8.65;;;7.80;;
16660;SDS011;8444;52.012;5.048;2022-08-19T12:33:11;9.73;;;8.45;;
16660;SDS011;8444;52.012;5.048;2022-08-19T12:35:41;9.02;;;8.13;;
16660;SDS011;8444;52.012;5.048;2022-08-19T12:38:07;8.13;;;7.28;;
16660;SDS011;8444;52.012;5.048;2022-08-19T12:40:32;8.60;;;6.70;;
16660;SDS011;8444;52.012;5.048;2022-08-19T12:42:58;11.53;;;7.50;;
16660;SDS011;8444;52.012;5.048;2022-08-19T12:45:24;9.40;;;6.88;;
16660;SDS011;8444;52.012;5.048;2022-08-19T12:47:49;8.15;;;6.32;;
16660;SDS011;8444;52.012;5.048;2022-08-19T12:50:15;7.15;;;6.45;;
16660;SDS011;8444;52.012;5.048;2022-08-19T12:52:40;7.45;;;6.22;;
16660;SDS011;8444;52.012;5.048;2022-08-19T12:55:07;6.03;;;4.90;;
16660;SDS011;8444;52.012;5.048;2022-08-19T12:57:33;4.47;;;4.07;;
16660;SDS011;8444;52.012;5.048;2022-08-19T13:00:01;6.85;;;4.90;;
16660;SDS011;8444;52.012;5.048;2022-08-19T13:02:29;6.18;;;4.40;;
16660;SDS011;8444;52.012;5.048;2022-08-19T13:04:56;5.57;;;4.50;;
16660;SDS011;8444;52.012;5.048;2022-08-19T13:07:22;7.22;;;4.40;;
16660;SDS011;8444;52.012;5.048;2022-08-19T13:09:47;6.57;;;4.23;;
16660;SDS011;8444;52.012;5.048;2022-08-19T13:12:15;7.47;;;4.63;;
16660;SDS011;8444;52.012;5.048;2022-08-19T13:14:40;4.27;;;3.87;;
16660;SDS011;8444;52.012;5.048;2022-08-19T13:17:06;7.72;;;4.82;;
16660;SDS011;8444;52.012;5.048;2022-08-19T13:19:32;7.25;;;4.80;;
16660;SDS011;8444;52.012;5.048;2022-08-19T13:21:57;4.80;;;3.55;;
16660;SDS011;8444;52.012;5.048;2022-08-19T13:24:23;3.72;;;3.40;;
16660;SDS011;8444;52.012;5.048;2022-08-19T13:26:48;6.10;;;4.13;;
16660;SDS011;8444;52.012;5.048;2022-08-19T13:29:14;5.30;;;4.00;;
16660;SDS011;8444;52.012;5.048;2022-08-19T13:31:57;4.20;;;3.00;;
16660;SDS011;8444;52.012;5.048;2022-08-19T13:34:41;4.15;;;3.00;;
16660;SDS011;8444;52.012;5.048;2022-08-19T13:37:06;2.97;;;2.77;;
16660;SDS011;8444;52.012;5.048;2022-08-19T13:39:32;4.80;;;3.13;;
16660;SDS011;8444;52.012;5.048;2022-08-19T13:41:58;5.50;;;4.18;;
16660;SDS011;8444;52.012;5.048;2022-08-19T13:44:25;4.80;;;4.40;;
16660;SDS011;8444;52.012;5.048;2022-08-19T13:46:51;3.92;;;3.63;;
16660;SDS011;8444;52.012;5.048;2022-08-19T13:49:17;4.43;;;3.55;;
16660;SDS011;8444;52.012;5.048;2022-08-19T13:51:43;4.13;;;3.53;;
16660;SDS011;8444;52.012;5.048;2022-08-19T13:54:09;3.85;;;3.50;;
16660;SDS011;8444;52.012;5.048;2022-08-19T13:56:35;3.97;;;3.70;;
16660;SDS011;8444;52.012;5.048;2022-08-19T13:59:00;4.18;;;3.88;;
16660;SDS011;8444;52.012;5.048;2022-08-19T14:01:25;3.95;;;3.65;;
16660;SDS011;8444;52.012;5.048;2022-08-19T14:03:51;4.95;;;4.50;;
16660;SDS011;8444;52.012;5.048;2022-08-19T14:06:16;4.90;;;4.50;;
16660;SDS011;8444;52.012;5.048;2022-08-19T14:08:42;4.70;;;4.40;;
16660;SDS011;8444;52.012;5.048;2022-08-19T14:11:07;6.45;;;4.60;;
16660;SDS011;8444;52.012;5.048;2022-08-19T14:13:33;5.25;;;4.75;;
16660;SDS011;8444;52.012;5.048;2022-08-19T14:15:58;5.45;;;4.95;;
16660;SDS011;8444;52.012;5.048;2022-08-19T14:18:24;5.00;;;4.43;;
16660;SDS011;8444;52.012;5.048;2022-08-19T14:20:49;4.93;;;4.50;;
16660;SDS011;8444;52.012;5.048;2022-08-19T14:23:15;4.20;;;3.80;;
16660;SDS011;8444;52.012;5.048;2022-08-19T14:25:40;4.07;;;3.20;;
16660;SDS011;8444;52.012;5.048;2022-08-19T14:28:05;3.45;;;3.15;;
16660;SDS011;8444;52.012;5.048;2022-08-19T14:30:33;3.53;;;3.00;;
16660;SDS011;8444;52.012;5.048;2022-08-19T14:32:59;5.53;;;3.70;;
16660;SDS011;8444;52.012;5.048;2022-08-19T14:35:26;5.10;;;4.60;;
16660;SDS011;8444;52.012;5.048;2022-08-19T14:37:51;4.82;;;4.40;;
16660;SDS011;8444;52.012;5.048;2022-08-19T14:40:21;6.63;;;5.20;;
16660;SDS011;8444;52.012;5.048;2022-08-19T14:42:47;6.75;;;5.85;;
16660;SDS011;8444;52.012;5.048;2022-08-19T14:45:13;5.85;;;4.95;;